Parkway South

*Note: All times are displayed in the local standard time of the station location.
**Rain - Equipment is designed to accurately record liquid precipitation; under conditions when precipitation is not in liquid form, the data displayed may not properly reflect rainfall values.

Date Max Temp
(°C)
Min Temp
(°C)
Avg Temp
(°C)
Rain (mm) Avg RH (%)
Fri, Dec 14, 2018 7.1 1.6 4.3 2.0 83.5
Thu, Dec 13, 2018 7.2 -2.1 1.5 0.8 91.0
Wed, Dec 12, 2018 1.9 -3.5 -0.2 0.2 85.3
Tue, Dec 11, 2018 0.4 -1.4 -0.7 0.0 83.5
Mon, Dec 10, 2018 1.4 -2.1 -0.3 0.0 81.1
Sun, Dec 09, 2018 1.4 -6.9 -2.1 0.0 75.6
Sat, Dec 08, 2018 -0.1 -5.4 -2.8 0.0 76.3
DateTime Avg Temp (°C) Rain (mm) RH (%)
Sat, Dec 15, 2018 18:00 3.0 0.0 88.2
Sat, Dec 15, 2018 17:00 3.4 0.0 86.7
Sat, Dec 15, 2018 16:00 3.9 0.0 84.6
Sat, Dec 15, 2018 15:00 4.2 0.0 84.2
Sat, Dec 15, 2018 14:00 4.5 0.0 82.7
Sat, Dec 15, 2018 13:00 4.5 0.0 81.9
Sat, Dec 15, 2018 12:00 4.0 0.0 85.6
Sat, Dec 15, 2018 11:00 3.4 0.0 90.7
Sat, Dec 15, 2018 10:00 2.8 0.0 96.9
Sat, Dec 15, 2018 09:00 2.2 0.0 99.9
Sat, Dec 15, 2018 08:00 1.8 0.0 99.9
Sat, Dec 15, 2018 07:00 2.0 0.0 99.9
Sat, Dec 15, 2018 06:00 1.4 0.0 99.9
Sat, Dec 15, 2018 05:00 0.9 0.0 99.9
Sat, Dec 15, 2018 04:00 1.1 0.0 99.5
Sat, Dec 15, 2018 03:00 2.1 0.0 95.3
Sat, Dec 15, 2018 02:00 3.4 0.0 90.3
Sat, Dec 15, 2018 01:00 4.3 0.0 88.5
Sat, Dec 15, 2018 00:00 4.9 0.0 86.4
Fri, Dec 14, 2018 23:00 4.6 0.0 88.2
Fri, Dec 14, 2018 22:00 4.8 0.0 86.4
Fri, Dec 14, 2018 21:00 4.4 0.0 88.3
Fri, Dec 14, 2018 20:00 4.2 0.0 87.2
Fri, Dec 14, 2018 19:00 3.9 0.0 82.8
Fri, Dec 14, 2018 18:00 4.3 0.0 78.9
Fri, Dec 14, 2018 17:00 6.5 0.0 71.9
Fri, Dec 14, 2018 16:00 6.8 0.0 75.8
Fri, Dec 14, 2018 15:00 6.5 0.0 79.8
Fri, Dec 14, 2018 14:00 6.0 0.0 81.3
Fri, Dec 14, 2018 13:00 5.2 0.0 85.6
Fri, Dec 14, 2018 12:00 4.6 0.8 89.9
Fri, Dec 14, 2018 11:00 4.6 0.8 87.1
Fri, Dec 14, 2018 10:00 5.0 0.2 79.5
Fri, Dec 14, 2018 09:00 4.6 0.0 79.1
Fri, Dec 14, 2018 08:00 4.2 0.2 80.1
Fri, Dec 14, 2018 07:00 3.9 0.0 80.3
Fri, Dec 14, 2018 06:00 3.2 0.0 82.7
Fri, Dec 14, 2018 05:00 2.3 0.0 86.0
Fri, Dec 14, 2018 04:00 2.0 0.0 87.6
Fri, Dec 14, 2018 03:00 2.2 0.0 86.3
Fri, Dec 14, 2018 02:00 2.2 0.0 86.5
Fri, Dec 14, 2018 01:00 2.1 0.0 87.0
Fri, Dec 14, 2018 00:00 1.9 0.0 86.6
Thu, Dec 13, 2018 23:00 2.1 0.0 85.6
Thu, Dec 13, 2018 22:00 1.7 0.0 89.2
Thu, Dec 13, 2018 21:00 1.3 0.0 93.0
Thu, Dec 13, 2018 20:00 1.6 0.0 92.4
Thu, Dec 13, 2018 19:00 1.8 0.0 91.8


asterix Register now to access more data! asterix